Time;durP1;ratioP1;P1;durP2;ratioP2;P2;SDS_P1;SDS_P2;PMS_P1;PMS_P2;Temp;Humidity;BMP_temperature;BMP_pressure;BME280_temperature;BME280_humidity;BME280_pressure;Samples;Min_cycle;Max_cycle;Signal;HPM_P1;HPM_P2
2022/01/13 00:01:23;;;;;;;27.00;7.53;;;8.40;97.10;;;;;;5033622;28;19909;-70
2022/01/13 00:03:49;;;;;;;16.63;6.88;;;8.40;97.10;;;;;;5033911;28;20034;-70
2022/01/13 00:06:18;;;;;;;20.30;7.82;;;8.40;97.10;;;;;;5033961;28;20044;-70
2022/01/13 00:08:45;;;;;;;13.75;5.85;;;8.40;97.20;;;;;;5033383;28;20053;-71
2022/01/13 00:11:11;;;;;;;24.23;6.75;;;8.40;97.30;;;;;;5034138;28;20073;-70
2022/01/13 00:13:50;;;;;;;15.50;7.38;;;8.30;97.30;;;;;;5033792;28;20104;-70
2022/01/13 00:16:27;;;;;;;22.05;7.78;;;8.40;97.30;;;;;;5033236;28;20072;-71
2022/01/13 00:19:05;;;;;;;25.02;8.20;;;8.40;97.30;;;;;;5033945;28;20040;-70
2022/01/13 00:21:36;;;;;;;25.00;8.35;;;8.40;97.30;;;;;;5033549;28;20029;-70
2022/01/13 00:24:03;;;;;;;22.73;8.30;;;8.40;97.30;;;;;;5033031;28;20555;-70
2022/01/13 00:26:34;;;;;;;29.67;10.82;;;8.40;97.30;;;;;;5033575;28;20057;-70
2022/01/13 00:29:02;;;;;;;15.32;5.90;;;8.40;97.30;;;;;;5032915;28;20022;-71
2022/01/13 00:31:32;;;;;;;17.42;6.57;;;8.40;97.30;;;;;;5033402;28;20041;-70
2022/01/13 00:34:00;;;;;;;23.63;8.98;;;8.30;97.30;;;;;;5025614;28;20029;-70
2022/01/13 00:36:30;;;;;;;12.23;6.20;;;8.40;97.30;;;;;;5028838;28;20040;-70
2022/01/13 00:38:57;;;;;;;25.35;8.55;;;8.40;97.30;;;;;;5033575;28;20025;-70
2022/01/13 00:41:27;;;;;;;18.40;7.75;;;8.30;97.30;;;;;;5033351;28;20396;-70
2022/01/13 00:43:54;;;;;;;25.15;7.90;;;8.40;97.40;;;;;;5033045;28;20116;-70
2022/01/13 00:46:25;;;;;;;17.65;6.63;;;8.30;97.40;;;;;;5032964;28;20136;-70
2022/01/13 00:48:53;;;;;;;12.70;6.70;;;8.40;97.40;;;;;;5021613;28;20042;-70
2022/01/13 00:51:21;;;;;;;21.52;7.97;;;8.40;97.40;;;;;;5032207;28;20072;-70
2022/01/13 00:53:47;;;;;;;21.30;8.32;;;8.30;97.40;;;;;;5033035;28;20041;-70
2022/01/13 00:56:12;;;;;;;15.30;5.97;;;8.30;97.40;;;;;;5033170;28;20095;-70
2022/01/13 00:58:38;;;;;;;22.50;7.32;;;8.30;97.50;;;;;;5032305;28;20037;-70
2022/01/13 01:01:06;;;;;;;16.45;8.23;;;8.30;97.40;;;;;;5033234;28;20022;-70
2022/01/13 01:03:33;;;;;;;14.20;6.47;;;8.40;97.40;;;;;;5032774;28;20489;-70
2022/01/13 01:06:00;;;;;;;12.98;7.07;;;8.30;97.40;;;;;;5032266;28;20434;-70
2022/01/13 01:08:26;;;;;;;10.35;4.05;;;8.30;97.40;;;;;;5032687;28;20090;-70
2022/01/13 01:10:55;;;;;;;23.52;9.35;;;8.30;97.40;;;;;;5032805;28;20037;-70
2022/01/13 01:13:28;;;;;;;17.52;7.72;;;8.40;97.40;;;;;;5032378;28;20025;-70
2022/01/13 01:15:57;;;;;;;13.40;6.40;;;8.30;97.40;;;;;;5031331;28;20037;-70
2022/01/13 01:24:12;;;;;;;11.90;6.22;;;8.30;97.30;;;;;;5028172;28;20030;-70
2022/01/13 01:26:45;;;;;;;13.63;6.03;;;8.40;97.40;;;;;;5031437;28;20511;-71
2022/01/13 01:29:23;;;;;;;14.48;6.50;;;8.30;97.20;;;;;;5032609;28;20053;-71
2022/01/13 01:31:53;;;;;;;12.05;6.53;;;8.30;97.20;;;;;;5032170;28;20057;-71
2022/01/13 01:34:47;;;;;;;9.00;5.50;;;8.30;97.20;;;;;;5030618;28;20068;-70
2022/01/13 01:37:18;;;;;;;13.90;6.15;;;8.30;97.30;;;;;;5032689;28;20091;-71
2022/01/13 01:39:48;;;;;;;15.52;6.43;;;8.30;97.30;;;;;;5030639;28;20083;-70
2022/01/13 01:42:15;;;;;;;11.18;6.18;;;8.30;97.30;;;;;;5032778;28;20053;-70
2022/01/13 01:44:44;;;;;;;10.65;5.78;;;8.30;97.30;;;;;;5019716;28;20052;-70
2022/01/13 01:47:16;;;;;;;10.90;5.05;;;8.30;97.30;;;;;;5031491;28;20045;-70
2022/01/13 01:49:46;;;;;;;12.07;5.55;;;8.20;97.30;;;;;;5032576;28;20033;-70
2022/01/13 01:52:14;;;;;;;14.35;6.45;;;8.20;97.30;;;;;;5032205;28;20404;-70
2022/01/13 01:54:41;;;;;;;20.92;5.97;;;8.30;97.30;;;;;;5022052;28;20037;-70
2022/01/13 01:57:07;;;;;;;13.00;5.72;;;8.30;97.30;;;;;;5029000;28;20401;-71
2022/01/13 01:59:36;;;;;;;9.10;3.58;;;8.30;97.30;;;;;;5028102;28;20423;-70
2022/01/13 02:02:03;;;;;;;16.75;7.10;;;8.30;97.30;;;;;;5031519;28;20060;-71
2022/01/13 02:04:29;;;;;;;12.55;6.38;;;8.30;97.30;;;;;;5032127;28;20030;-71
2022/01/13 02:07:02;;;;;;;7.78;4.25;;;8.30;97.20;;;;;;5031930;28;20033;-70
2022/01/13 02:09:28;;;;;;;;;;;8.30;97.20;;;;;;5023805;28;20067;-70
2022/01/13 02:11:58;;;;;;;10.10;4.75;;;8.30;97.20;;;;;;5032080;28;19960;-70
2022/01/13 02:16:55;;;;;;;11.05;5.38;;;8.30;97.20;;;;;;5031327;28;20373;-71
2022/01/13 02:19:25;;;;;;;12.95;6.13;;;8.30;97.20;;;;;;5032168;28;20041;-70
2022/01/13 02:21:51;;;;;;;10.77;5.75;;;8.30;97.20;;;;;;5019186;28;20025;-70
2022/01/13 02:24:17;;;;;;;14.30;7.65;;;8.30;97.20;;;;;;5032127;28;20033;-70
2022/01/13 02:26:42;;;;;;;12.48;6.45;;;8.30;97.20;;;;;;5031633;28;20052;-70
2022/01/13 02:29:08;;;;;;;11.95;5.47;;;8.30;97.10;;;;;;5031462;28;20035;-70
2022/01/13 02:31:34;;;;;;;15.73;7.57;;;8.30;97.10;;;;;;5031899;28;20021;-70
2022/01/13 02:34:00;;;;;;;19.45;6.85;;;8.30;97.10;;;;;;5031794;28;20041;-70
2022/01/13 02:36:27;;;;;;;11.55;5.75;;;8.30;97.10;;;;;;5031630;28;20083;-70
2022/01/13 02:38:54;;;;;;;11.77;3.30;;;8.30;97.10;;;;;;5031850;28;20061;-70
2022/01/13 02:41:24;;;;;;;10.85;5.65;;;8.30;97.10;;;;;;5032163;28;20040;-70
2022/01/13 02:43:53;;;;;;;11.73;6.22;;;8.30;97.10;;;;;;5031034;28;20037;-70
2022/01/13 02:49:05;;;;;;;16.73;6.25;;;8.30;97.10;;;;;;5035581;28;20060;-70
2022/01/13 02:51:31;;;;;;;15.73;6.63;;;8.30;97.10;;;;;;5034563;28;20044;-70
2022/01/13 02:53:57;;;;;;;10.80;5.18;;;8.40;97.10;;;;;;5035581;28;20112;-70
2022/01/13 02:56:23;;;;;;;11.90;5.43;;;8.30;97.10;;;;;;5035266;28;20033;-70
2022/01/13 02:58:49;;;;;;;24.08;8.07;;;8.30;97.10;;;;;;5034757;28;20032;-70
2022/01/13 03:01:15;;;;;;;10.90;5.55;;;8.30;97.10;;;;;;5034932;28;20060;-70
2022/01/13 03:03:41;;;;;;;13.80;7.03;;;8.30;97.10;;;;;;5034844;28;20036;-70
2022/01/13 03:06:21;;;;;;;17.52;5.95;;;8.30;97.10;;;;;;5034105;28;20044;-70
2022/01/13 03:08:49;;;;;;;16.30;7.60;;;8.40;97.10;;;;;;5027372;28;20503;-70
2022/01/13 03:11:16;;;;;;;13.45;7.20;;;8.40;97.10;;;;;;5032234;28;20049;-70
2022/01/13 03:13:41;;;;;;;20.90;7.95;;;8.30;97.00;;;;;;5034873;28;20497;-70
2022/01/13 03:16:12;;;;;;;15.27;6.93;;;8.30;97.10;;;;;;5034741;28;20033;-70
2022/01/13 03:18:38;;;;;;;17.42;6.70;;;8.30;97.10;;;;;;5034524;28;20084;-70
2022/01/13 03:21:06;;;;;;;14.90;5.68;;;8.40;97.10;;;;;;5029567;28;20030;-70
2022/01/13 03:23:33;;;;;;;17.13;7.90;;;8.30;97.10;;;;;;5028005;28;20504;-70
2022/01/13 03:25:58;;;;;;;14.95;7.25;;;8.30;97.10;;;;;;5033494;28;20061;-71
2022/01/13 03:28:37;;;;;;;20.92;8.63;;;8.30;97.10;;;;;;5034762;28;20381;-71
2022/01/13 03:31:03;;;;;;;18.27;8.32;;;8.30;97.10;;;;;;5034899;28;20037;-70
2022/01/13 03:33:29;;;;;;;14.10;6.22;;;8.30;97.10;;;;;;5033706;28;20120;-70
2022/01/13 03:35:56;;;;;;;18.48;7.57;;;8.20;97.10;;;;;;5034674;28;20053;-70
2022/01/13 03:38:21;;;;;;;10.48;6.15;;;8.20;97.20;;;;;;5034230;28;20037;-69
2022/01/13 03:40:47;;;;;;;15.18;6.35;;;8.30;97.20;;;;;;5033939;28;20030;-70
2022/01/13 03:43:17;;;;;;;11.40;4.38;;;8.30;97.20;;;;;;5022151;28;20083;-70
2022/01/13 03:45:43;;;;;;;21.05;8.45;;;8.30;97.20;;;;;;5033847;28;20029;-70
2022/01/13 03:48:10;;;;;;;17.20;8.43;;;8.30;97.20;;;;;;5034283;28;20024;-70
2022/01/13 03:50:36;;;;;;;16.70;7.25;;;8.30;97.20;;;;;;5033949;28;20033;-70
2022/01/13 03:53:02;;;;;;;17.63;7.75;;;8.20;97.20;;;;;;5029406;28;20873;-70
2022/01/13 03:55:38;;;;;;;23.00;8.00;;;8.30;97.20;;;;;;5033926;28;20116;-70
2022/01/13 03:58:21;;;;;;;19.58;8.18;;;8.30;97.30;;;;;;5031544;28;20053;-70
2022/01/13 04:01:25;;;;;;;19.50;9.05;;;8.20;97.20;;;;;;5033372;28;20112;-71
2022/01/13 04:03:51;;;;;;;19.25;7.38;;;8.20;97.30;;;;;;5031059;28;20128;-87
2022/01/13 04:06:17;;;;;;;16.92;8.52;;;8.20;97.30;;;;;;5033610;28;20136;-70
2022/01/13 04:08:46;;;;;;;19.67;8.45;;;8.20;97.30;;;;;;5033191;28;20021;-70
2022/01/13 04:11:26;;;;;;;15.75;6.68;;;8.20;97.30;;;;;;5033740;28;20045;-70
2022/01/13 04:13:57;;;;;;;13.25;7.28;;;8.20;97.30;;;;;;5033268;28;20040;-70
2022/01/13 04:16:31;;;;;;;13.70;6.93;;;8.20;97.40;;;;;;5033474;28;20034;-70
2022/01/13 04:19:02;;;;;;;19.92;8.30;;;8.20;97.30;;;;;;5034152;28;20040;-70
2022/01/13 04:21:28;;;;;;;19.08;7.30;;;8.20;97.30;;;;;;5033041;28;20033;-69
2022/01/13 04:23:57;;;;;;;16.80;8.20;;;8.20;97.30;;;;;;5033287;28;20038;-70
2022/01/13 04:26:31;;;;;;;15.82;7.22;;;8.20;97.30;;;;;;5032483;28;20037;-70
2022/01/13 04:29:06;;;;;;;;;;;8.30;97.30;;;;;;5032952;28;20037;-70
2022/01/13 04:31:31;;;;;;;18.77;8.77;;;8.20;97.30;;;;;;5032840;28;20434;-71
2022/01/13 04:33:57;;;;;;;15.13;5.72;;;8.30;97.30;;;;;;5032860;28;20025;-70
2022/01/13 04:36:23;;;;;;;21.15;7.85;;;8.20;97.60;;;;;;5031918;28;20511;-70
2022/01/13 04:38:48;;;;;;;17.75;7.75;;;8.20;97.40;;;;;;5032254;28;20461;-70
2022/01/13 04:41:24;;;;;;;15.27;6.60;;;8.20;97.40;;;;;;5032454;28;20064;-70
2022/01/13 04:43:50;;;;;;;18.30;8.77;;;8.20;97.40;;;;;;5031898;28;20476;-70
2022/01/13 04:46:15;;;;;;;25.17;9.73;;;8.20;97.40;;;;;;5032466;28;20129;-70
2022/01/13 04:48:41;;;;;;;19.08;8.25;;;8.10;97.40;;;;;;5032415;28;20117;-70
2022/01/13 04:51:06;;;;;;;17.52;7.80;;;8.10;97.40;;;;;;5031769;28;20034;-70
2022/01/13 04:53:32;;;;;;;19.60;8.30;;;8.10;97.50;;;;;;5032227;28;20029;-70
2022/01/13 04:55:59;;;;;;;17.40;8.48;;;8.10;97.50;;;;;;5032326;28;20080;-70
2022/01/13 04:58:24;;;;;;;21.13;9.35;;;8.10;97.60;;;;;;5031704;28;20116;-70
2022/01/13 05:00:53;;;;;;;18.42;7.55;;;8.10;97.60;;;;;;5032356;28;20108;-70
2022/01/13 05:03:18;;;;;;;19.27;8.52;;;8.10;97.60;;;;;;5031604;28;20540;-70
2022/01/13 05:05:44;;;;;;;19.10;8.48;;;8.00;97.60;;;;;;5033019;28;20059;-70
2022/01/13 05:08:10;;;;;;;18.95;8.88;;;8.10;97.70;;;;;;5031802;28;20032;-70
2022/01/13 05:10:35;;;;;;;16.30;8.55;;;8.10;97.70;;;;;;5032511;28;20025;-70
2022/01/13 05:13:03;;;;;;;15.60;6.35;;;8.00;97.70;;;;;;5032828;28;20095;-70
2022/01/13 05:15:29;;;;;;;22.42;9.65;;;8.10;97.70;;;;;;5032985;28;20488;-70
2022/01/13 05:18:13;;;;;;;16.98;7.40;;;8.10;97.70;;;;;;5032004;28;20026;-70
2022/01/13 05:20:49;;;;;;;22.55;8.25;;;8.10;97.70;;;;;;5032511;28;20488;-70
2022/01/13 05:23:15;;;;;;;18.15;8.07;;;8.00;97.70;;;;;;5033121;28;20034;-70
2022/01/13 05:25:45;;;;;;;25.33;10.02;;;8.00;97.80;;;;;;5031874;28;20049;-70
2022/01/13 05:28:12;;;;;;;15.07;6.90;;;8.00;97.80;;;;;;5032687;28;20071;-70
2022/01/13 05:30:39;;;;;;;22.80;10.50;;;8.00;97.90;;;;;;5032404;28;20063;-70
2022/01/13 05:33:05;;;;;;;12.02;5.97;;;8.00;97.90;;;;;;5032005;28;20140;-69
2022/01/13 05:35:31;;;;;;;21.13;9.00;;;8.00;97.90;;;;;;5031276;28;20118;-70
2022/01/13 05:37:57;;;;;;;22.08;8.55;;;8.10;97.90;;;;;;5032739;28;20079;-72
2022/01/13 05:40:22;;;;;;;19.48;8.13;;;8.00;97.90;;;;;;5031346;28;20029;-70
2022/01/13 05:42:49;;;;;;;17.48;8.98;;;8.10;97.90;;;;;;5031552;28;20116;-70
2022/01/13 05:45:16;;;;;;;18.55;8.73;;;8.10;97.90;;;;;;5031205;28;20037;-71
2022/01/13 05:47:47;;;;;;;22.13;8.93;;;8.00;97.90;;;;;;5030022;28;20076;-70
2022/01/13 05:50:15;;;;;;;23.63;8.93;;;8.10;98.00;;;;;;5030417;28;20021;-70
2022/01/13 05:52:41;;;;;;;27.77;9.32;;;8.00;98.00;;;;;;5029406;28;20045;-71
2022/01/13 05:55:08;;;;;;;25.15;9.88;;;8.00;98.00;;;;;;5029458;28;20116;-70
2022/01/13 05:57:36;;;;;;;26.25;9.95;;;8.00;98.00;;;;;;5029171;28;20079;-70
2022/01/13 06:00:04;;;;;;;26.63;8.52;;;8.00;98.10;;;;;;5028592;28;20033;-70
2022/01/13 06:02:37;;;;;;;27.42;10.63;;;8.00;98.10;;;;;;5029450;28;20022;-70
2022/01/13 06:05:04;;;;;;;23.95;10.65;;;8.00;98.20;;;;;;5030406;28;20032;-69
2022/01/13 06:07:32;;;;;;;27.15;10.82;;;8.10;98.20;;;;;;5030967;28;20037;-71
2022/01/13 06:09:58;;;;;;;22.27;8.18;;;8.00;98.20;;;;;;5031423;28;20431;-69
2022/01/13 06:12:32;;;;;;;31.88;12.95;;;8.00;98.20;;;;;;5031266;28;20559;-69
2022/01/13 06:15:07;;;;;;;25.92;9.35;;;8.10;98.30;;;;;;5030777;28;20033;-69
2022/01/13 06:17:33;;;;;;;25.58;10.95;;;8.00;98.30;;;;;;5031510;28;20464;-69
2022/01/13 06:19:59;;;;;;;26.92;9.82;;;8.00;98.30;;;;;;5033452;28;20032;-68
2022/01/13 06:22:28;;;;;;;21.58;9.60;;;8.00;98.30;;;;;;5034763;28;20498;-68
2022/01/13 06:24:54;;;;;;;31.38;10.75;;;8.00;98.30;;;;;;5035513;28;20041;-69
2022/01/13 06:27:22;;;;;;;27.90;10.50;;;8.10;98.40;;;;;;5032981;28;20038;-69
2022/01/13 06:29:51;;;;;;;25.90;10.15;;;8.10;98.40;;;;;;5046031;28;20018;-69
2022/01/13 06:32:17;;;;;;;26.63;11.77;;;8.10;98.50;;;;;;5032881;28;20048;-69
2022/01/13 06:34:43;;;;;;;18.55;8.90;;;8.10;98.50;;;;;;5032573;28;20425;-70
2022/01/13 06:37:09;;;;;;;22.17;9.50;;;8.00;98.60;;;;;;5033329;28;20076;-69
2022/01/13 06:39:34;;;;;;;28.70;11.55;;;8.00;98.60;;;;;;5033037;28;20029;-69
2022/01/13 06:42:00;;;;;;;23.08;9.05;;;8.00;98.70;;;;;;5031505;28;20404;-70
2022/01/13 06:44:26;;;;;;;21.92;8.93;;;8.10;98.70;;;;;;5032797;28;20090;-69
2022/01/13 06:46:54;;;;;;;35.95;14.85;;;8.00;98.70;;;;;;5031716;28;20514;-71
2022/01/13 06:49:20;;;;;;;29.80;12.25;;;8.00;98.70;;;;;;5034229;28;20491;-71
2022/01/13 06:51:46;;;;;;;37.85;13.50;;;8.10;98.70;;;;;;5035286;28;20029;-69
2022/01/13 06:54:12;;;;;;;33.08;12.63;;;8.10;98.80;;;;;;5035525;28;20045;-69
2022/01/13 06:56:37;;;;;;;36.70;13.82;;;8.10;98.80;;;;;;5033523;28;20032;-68
2022/01/13 06:59:09;;;;;;;26.75;10.70;;;8.10;98.80;;;;;;5034616;28;20036;-68
2022/01/13 07:01:35;;;;;;;34.97;13.63;;;8.10;98.80;;;;;;5035333;28;20113;-68
2022/01/13 07:04:01;;;;;;;30.23;11.05;;;8.10;98.80;;;;;;5034410;28;20108;-68
2022/01/13 07:06:30;;;;;;;29.83;13.20;;;8.10;98.80;;;;;;5034221;28;20059;-68
2022/01/13 07:08:55;;;;;;;28.48;11.68;;;8.10;98.80;;;;;;5033966;28;20503;-68
2022/01/13 07:11:21;;;;;;;28.10;9.70;;;8.10;98.80;;;;;;5033085;28;20030;-68
2022/01/13 07:13:46;;;;;;;22.35;10.10;;;8.10;98.80;;;;;;5034923;28;20029;-68
2022/01/13 07:16:12;;;;;;;20.25;7.93;;;8.10;98.90;;;;;;5034460;28;20030;-68
2022/01/13 07:18:41;;;;;;;31.48;10.77;;;8.10;98.80;;;;;;5034171;28;20428;-68
2022/01/13 07:21:08;;;;;;;28.65;11.13;;;8.20;98.80;;;;;;5031306;28;20025;-69
2022/01/13 07:23:34;;;;;;;27.90;12.10;;;8.20;98.80;;;;;;5026073;28;20033;-69
2022/01/13 07:26:02;;;;;;;27.98;11.18;;;8.20;98.80;;;;;;5033566;28;20045;-69
2022/01/13 07:28:31;;;;;;;31.17;13.60;;;8.20;98.70;;;;;;5034969;28;20045;-69
2022/01/13 07:30:58;;;;;;;19.67;8.68;;;8.20;98.70;;;;;;5032936;28;20469;-69
2022/01/13 07:33:24;;;;;;;35.10;13.63;;;8.20;98.80;;;;;;5034783;28;20381;-69
2022/01/13 07:35:50;;;;;;;23.00;9.63;;;8.20;98.80;;;;;;5034369;28;20468;-69
2022/01/13 07:38:17;;;;;;;32.97;13.27;;;8.20;98.80;;;;;;5033382;28;20441;-69
2022/01/13 07:40:43;;;;;;;31.45;12.80;;;8.20;98.80;;;;;;5034437;28;20030;-69
2022/01/13 07:43:09;;;;;;;24.40;9.65;;;8.20;98.80;;;;;;5034254;28;20404;-69
2022/01/13 07:45:37;;;;;;;26.08;10.80;;;8.20;98.90;;;;;;5033841;28;20446;-69
2022/01/13 07:48:03;;;;;;;28.30;11.75;;;8.10;98.90;;;;;;5033882;28;20049;-69
2022/01/13 07:50:29;;;;;;;28.20;11.98;;;8.20;98.90;;;;;;5034357;28;20029;-69
2022/01/13 07:52:58;;;;;;;30.70;13.27;;;8.20;98.90;;;;;;5033401;28;20030;-69
2022/01/13 07:55:23;;;;;;;28.20;11.65;;;8.20;98.90;;;;;;5034261;28;20443;-68
2022/01/13 07:57:49;;;;;;;28.40;11.50;;;8.20;98.80;;;;;;5021899;28;20091;-69
2022/01/13 08:00:20;;;;;;;33.10;14.25;;;8.20;98.90;;;;;;5033575;28;20025;-68
2022/01/13 08:02:46;;;;;;;25.60;11.77;;;8.20;98.90;;;;;;5033772;28;20022;-69
2022/01/13 08:05:12;;;;;;;29.88;11.68;;;8.30;98.90;;;;;;5034068;28;20040;-69
2022/01/13 08:07:38;;;;;;;32.53;12.25;;;8.20;98.90;;;;;;5033085;28;20041;-69
2022/01/13 08:10:04;;;;;;;26.48;10.52;;;8.30;98.90;;;;;;5033897;28;20104;-69
2022/01/13 08:12:30;;;;;;;26.77;8.57;;;8.30;98.80;;;;;;5033728;28;20457;-69
2022/01/13 08:14:55;;;;;;;22.83;11.07;;;8.30;98.80;;;;;;5033227;28;20025;-69
2022/01/13 08:20:08;;;;;;;35.45;14.48;;;8.40;98.80;;;;;;5022554;28;20041;-69
2022/01/13 08:22:33;;;;;;;27.98;10.65;;;8.30;98.90;;;;;;5033556;28;20033;-69
2022/01/13 08:24:59;;;;;;;34.88;11.57;;;8.30;98.80;;;;;;5033644;28;20045;-69
2022/01/13 08:27:25;;;;;;;31.45;11.07;;;8.30;98.90;;;;;;5032657;28;20046;-69
2022/01/13 08:29:51;;;;;;;31.83;11.13;;;8.40;98.90;;;;;;5033874;28;20033;-69
2022/01/13 08:32:18;;;;;;;30.48;11.82;;;8.40;98.90;;;;;;5033357;28;20045;-69
2022/01/13 08:34:45;;;;;;;34.17;13.32;;;8.40;98.90;;;;;;5032861;28;20489;-69
2022/01/13 08:37:10;;;;;;;39.83;15.65;;;8.40;98.90;;;;;;5033292;28;20037;-69
2022/01/13 08:39:43;;;;;;;34.28;13.68;;;8.40;98.90;;;;;;5033534;28;20034;-69
2022/01/13 08:42:08;;;;;;;25.88;10.52;;;8.30;98.90;;;;;;5032175;28;20033;-69
2022/01/13 08:44:34;;;;;;;23.60;9.77;;;8.40;99.00;;;;;;5032735;28;20045;-69
2022/01/13 08:46:59;;;;;;;29.85;11.50;;;8.40;98.90;;;;;;5032918;28;20030;-69
2022/01/13 08:49:25;;;;;;;25.20;11.00;;;8.40;98.90;;;;;;5032890;28;20531;-69
2022/01/13 08:51:51;;;;;;;25.25;11.07;;;8.40;98.90;;;;;;5033175;28;20041;-69
2022/01/13 08:54:21;;;;;;;20.67;9.40;;;8.40;99.00;;;;;;5032754;28;20029;-68
2022/01/13 08:56:47;;;;;;;30.50;11.73;;;8.40;98.90;;;;;;5032416;28;20029;-67
2022/01/13 08:59:13;;;;;;;35.08;11.95;;;8.50;98.90;;;;;;5032420;28;20626;-68
2022/01/13 09:01:39;;;;;;;34.15;12.57;;;8.50;98.90;;;;;;5031282;28;20113;-68
2022/01/13 09:04:06;;;;;;;30.55;12.57;;;8.50;98.80;;;;;;5032307;28;20026;-68
2022/01/13 09:06:31;;;;;;;21.52;8.63;;;8.50;98.80;;;;;;5032577;28;20764;-67
2022/01/13 09:08:57;;;;;;;26.98;8.48;;;8.50;98.80;;;;;;5033051;28;20032;-67
2022/01/13 09:11:23;;;;;;;29.33;10.27;;;8.50;98.90;;;;;;5031922;28;20039;-68
2022/01/13 09:13:56;;;;;;;19.83;7.18;;;8.50;98.80;;;;;;5032877;28;20033;-67
2022/01/13 09:16:24;;;;;;;29.88;12.27;;;8.60;98.90;;;;;;5030921;28;20480;-68
2022/01/13 09:21:27;;;;;;;26.75;10.52;;;8.60;98.80;;;;;;5032325;28;20089;-67
2022/01/13 09:23:53;;;;;;;32.17;11.77;;;8.60;98.80;;;;;;5031723;28;20029;-67
2022/01/13 09:26:19;;;;;;;21.98;11.05;;;8.60;98.70;;;;;;5032971;28;20115;-68
2022/01/13 09:28:45;;;;;;;30.73;10.07;;;8.60;98.70;;;;;;5032375;28;20484;-68
2022/01/13 09:31:10;;;;;;;28.60;10.43;;;8.60;98.70;;;;;;5032128;28;20024;-67
2022/01/13 09:33:36;;;;;;;26.75;11.13;;;8.60;98.70;;;;;;5032407;28;20033;-67
2022/01/13 09:36:04;;;;;;;24.95;10.02;;;8.60;98.60;;;;;;5032449;28;20080;-67
2022/01/13 09:38:30;;;;;;;34.45;11.68;;;8.70;98.70;;;;;;5031772;28;20044;-68
2022/01/13 09:40:55;;;;;;;24.90;8.45;;;8.70;98.70;;;;;;5032628;28;20044;-67
2022/01/13 09:43:28;;;;;;;21.30;9.38;;;8.70;98.70;;;;;;5032132;28;20029;-68
2022/01/13 09:45:55;;;;;;;21.35;10.15;;;8.70;98.70;;;;;;5031980;28;20033;-68
2022/01/13 09:48:21;;;;;;;22.73;9.00;;;8.70;98.60;;;;;;5032295;28;20033;-67
2022/01/13 09:50:48;;;;;;;27.23;10.90;;;8.70;98.60;;;;;;5032511;28;20025;-68
2022/01/13 09:53:15;;;;;;;24.92;9.93;;;8.70;98.60;;;;;;5031512;28;20056;-68
2022/01/13 09:55:42;;;;;;;24.23;10.00;;;8.70;98.60;;;;;;5035775;28;20037;-67
2022/01/13 09:58:10;;;;;;;28.92;9.88;;;8.70;98.60;;;;;;5036501;28;20025;-67
2022/01/13 10:00:41;;;;;;;22.65;9.25;;;8.70;98.60;;;;;;5035597;28;20033;-68
2022/01/13 10:03:18;;;;;;;30.50;11.88;;;8.80;98.60;;;;;;5023443;28;20040;-67
2022/01/13 10:05:49;;;;;;;20.15;9.20;;;8.80;98.60;;;;;;5035280;28;20042;-68
2022/01/13 10:08:15;;;;;;;17.35;7.80;;;8.80;98.60;;;;;;5035809;28;20047;-68
2022/01/13 10:10:41;;;;;;;16.55;7.13;;;8.80;98.60;;;;;;5036160;28;20029;-67
2022/01/13 10:13:14;;;;;;;25.17;9.77;;;8.70;98.60;;;;;;5034959;28;20037;-67
2022/01/13 10:18:39;;;;;;;23.13;9.68;;;8.80;98.80;;;;;;5025064;28;20087;-67
2022/01/13 10:21:11;;;;;;;29.90;12.73;;;8.80;98.50;;;;;;5035206;28;20465;-67
2022/01/13 10:23:37;;;;;;;35.65;13.48;;;8.80;98.60;;;;;;5035815;28;20072;-68
2022/01/13 10:26:14;;;;;;;29.08;13.52;;;8.80;98.60;;;;;;5035441;28;20443;-68
2022/01/13 10:28:40;;;;;;;28.27;13.50;;;8.70;98.70;;;;;;5034856;28;20033;-68
2022/01/13 10:31:06;;;;;;;17.67;9.02;;;8.70;98.70;;;;;;5033270;28;20037;-68
2022/01/13 10:33:34;;;;;;;22.02;10.40;;;8.70;98.80;;;;;;5035517;28;20064;-68
2022/01/13 10:36:09;;;;;;;29.55;13.57;;;8.70;98.80;;;;;;5033280;28;20018;-68
2022/01/13 10:38:55;;;;;;;26.95;10.60;;;8.70;98.80;;;;;;5034818;28;20484;-68
2022/01/13 10:42:00;;;;;;;27.60;12.48;;;8.70;98.90;;;;;;5033820;28;20419;-68
2022/01/13 10:44:23;;;;;;;32.65;15.73;;;8.70;98.80;;;;;;5028587;28;20053;-68
2022/01/13 10:47:03;;;;;;;29.08;14.35;;;8.80;98.90;;;;;;5029506;28;20108;-68
2022/01/13 10:49:40;;;;;;;24.10;11.45;;;8.70;98.90;;;;;;5031816;28;20392;-68
2022/01/13 10:52:23;;;;;;;27.35;9.52;;;8.70;99.00;;;;;;5035487;28;20365;-68
2022/01/13 10:54:52;;;;;;;20.75;9.38;;;8.70;99.00;;;;;;5035112;28;20033;-68
2022/01/13 10:57:20;;;;;;;31.17;15.10;;;8.80;99.00;;;;;;5035405;28;20148;-68
2022/01/13 10:59:46;;;;;;;27.88;10.63;;;8.80;98.90;;;;;;5034333;28;20029;-68
2022/01/13 11:02:12;;;;;;;25.48;10.80;;;8.80;98.90;;;;;;5032705;28;20086;-68
2022/01/13 11:04:38;;;;;;;18.08;8.68;;;8.80;98.90;;;;;;5034673;28;20033;-68
2022/01/13 11:07:13;;;;;;;12.00;6.53;;;8.90;98.90;;;;;;5033635;28;20037;-69
2022/01/13 11:09:42;;;;;;;17.85;8.40;;;8.90;98.80;;;;;;5033928;28;20026;-69
2022/01/13 11:12:14;;;;;;;35.97;15.65;;;9.00;98.80;;;;;;5032313;28;20122;-69
2022/01/13 11:14:43;;;;;;;23.08;11.52;;;9.00;98.70;;;;;;5032404;28;20030;-69
2022/01/13 11:17:10;;;;;;;23.70;11.80;;;9.00;98.60;;;;;;5031565;28;20370;-69
2022/01/13 11:19:39;;;;;;;28.33;12.65;;;9.00;98.60;;;;;;5032415;28;20022;-69
2022/01/13 11:22:05;;;;;;;36.10;12.65;;;9.00;98.60;;;;;;5034060;28;20428;-69
2022/01/13 11:24:30;;;;;;;28.67;13.45;;;9.00;98.60;;;;;;5034283;28;20037;-68
2022/01/13 11:26:57;;;;;;;29.90;15.82;;;9.00;98.60;;;;;;5034631;28;20045;-69
2022/01/13 11:29:23;;;;;;;32.20;14.23;;;9.00;98.60;;;;;;5035078;28;20034;-69
2022/01/13 11:31:50;;;;;;;37.38;16.05;;;9.00;98.60;;;;;;5032781;28;20038;-69
2022/01/13 11:34:17;;;;;;;25.55;9.38;;;9.00;98.70;;;;;;5034240;28;20037;-69
2022/01/13 11:36:43;;;;;;;17.40;9.18;;;9.00;98.70;;;;;;5033904;28;20511;-69
2022/01/13 11:39:12;;;;;;;35.97;15.98;;;9.00;98.80;;;;;;5033418;28;20037;-69
2022/01/13 11:42:02;;;;;;;32.33;13.13;;;9.00;98.70;;;;;;5033962;28;20036;-69
2022/01/13 11:44:28;;;;;;;27.52;11.13;;;9.00;98.80;;;;;;5031186;28;20112;-69
2022/01/13 11:46:54;;;;;;;36.03;16.45;;;9.00;98.80;;;;;;5033654;28;20141;-69
2022/01/13 11:49:24;;;;;;;30.38;12.57;;;9.00;98.80;;;;;;5033693;28;20067;-69
2022/01/13 11:51:59;;;;;;;23.05;13.48;;;9.00;98.80;;;;;;5033059;28;20037;-69
2022/01/13 11:54:28;;;;;;;21.25;10.60;;;9.00;98.70;;;;;;5033585;28;20030;-69
2022/01/13 11:57:21;;;;;;;29.15;11.75;;;9.00;98.80;;;;;;5033545;28;20029;-69
2022/01/13 11:59:59;;;;;;;29.83;12.82;;;9.00;98.80;;;;;;5030735;28;20025;-69
2022/01/13 12:02:29;;;;;;;28.10;13.93;;;9.00;98.80;;;;;;5034314;28;20036;-69
2022/01/13 12:05:23;;;;;;;33.47;14.05;;;9.10;98.80;;;;;;5033908;28;20116;-70
2022/01/13 12:07:55;;;;;;;33.25;12.68;;;9.10;98.80;;;;;;5033566;28;20056;-68
2022/01/13 12:10:20;;;;;;;28.55;14.98;;;9.10;98.70;;;;;;5034019;28;20036;-68
2022/01/13 12:12:46;;;;;;;23.05;11.85;;;9.10;98.70;;;;;;5033248;28;20416;-68
2022/01/13 12:15:20;;;;;;;35.00;12.25;;;9.00;98.70;;;;;;5026492;28;20461;-67
2022/01/13 12:17:50;;;;;;;27.92;13.23;;;9.10;98.80;;;;;;5029992;28;20064;-70
2022/01/13 12:20:55;;;;;;;25.83;11.77;;;9.10;98.70;;;;;;5033433;28;20087;-67
2022/01/13 12:23:43;;;;;;;29.08;14.35;;;9.10;98.70;;;;;;5022726;28;20034;-68
2022/01/13 12:26:30;;;;;;;22.80;12.80;;;9.10;98.70;;;;;;5032860;28;20135;-68
2022/01/13 12:29:24;;;;;;;23.95;11.38;;;9.10;98.70;;;;;;5033507;28;20045;-68
2022/01/13 12:31:50;;;;;;;34.20;15.27;;;9.10;98.80;;;;;;5032841;28;20041;-68
2022/01/13 12:34:29;;;;;;;25.33;12.15;;;9.10;98.80;;;;;;5032121;28;20037;-68
2022/01/13 12:37:00;;;;;;;30.38;13.45;;;9.10;98.80;;;;;;5033083;28;20044;-68
2022/01/13 12:39:28;;;;;;;26.20;13.35;;;9.10;98.70;;;;;;5033401;28;20025;-68
2022/01/13 12:42:03;;;;;;;30.33;15.10;;;9.10;98.70;;;;;;5032332;28;20037;-68
2022/01/13 12:47:15;;;;;;;19.95;10.07;;;9.10;98.80;;;;;;5032620;28;20040;-68
2022/01/13 12:49:41;;;;;;;23.23;10.57;;;9.00;98.90;;;;;;5021908;28;20037;-68
2022/01/13 12:52:07;;;;;;;29.02;10.35;;;9.00;98.90;;;;;;5031966;28;20033;-68
2022/01/13 12:54:34;;;;;;;24.75;9.55;;;9.10;98.90;;;;;;5032373;28;20033;-68
2022/01/13 12:57:05;;;;;;;24.25;12.27;;;9.10;98.80;;;;;;5032988;28;20029;-69
2022/01/13 12:59:32;;;;;;;17.95;8.32;;;9.10;98.90;;;;;;5032850;28;20105;-68
2022/01/13 13:01:59;;;;;;;22.92;11.02;;;9.20;98.80;;;;;;5032641;28;20025;-68
2022/01/13 13:04:25;;;;;;;19.90;9.85;;;9.20;98.80;;;;;;5032923;28;20057;-68
2022/01/13 13:06:52;;;;;;;26.20;11.57;;;9.20;98.80;;;;;;5032700;28;20065;-68
2022/01/13 13:09:23;;;;;;;22.25;10.57;;;9.20;98.80;;;;;;5032364;28;20025;-68
2022/01/13 13:11:52;;;;;;;23.63;9.90;;;9.20;98.70;;;;;;5033378;28;20034;-68
2022/01/13 13:14:23;;;;;;;22.90;10.10;;;9.30;98.70;;;;;;5032921;28;20392;-69